createdAt,value
2022-10-08T00:00:00.876Z,101629.22
2022-10-08T00:02:29.742Z,101619.13
2022-10-08T00:07:45.571Z,101604.94
2022-10-08T00:10:12.065Z,101611.19
2022-10-08T00:15:45.284Z,101628.38
2022-10-08T00:18:11.819Z,101622.91
2022-10-08T00:20:38.292Z,101634.94
2022-10-08T00:23:04.772Z,101625.13
2022-10-08T00:25:31.221Z,101627.56
2022-10-08T00:27:57.835Z,101620.47
2022-10-08T00:30:24.363Z,101626.75
2022-10-08T00:35:40.575Z,101634.09
2022-10-08T00:38:11.378Z,101629.75
2022-10-08T00:40:52.981Z,101619.66
2022-10-08T00:43:46.785Z,101626.22
2022-10-08T00:46:38.371Z,101618.84
2022-10-08T00:52:03.951Z,101623.75
2022-10-08T00:54:31.973Z,101626.47
2022-10-08T00:56:58.517Z,101626.47
2022-10-08T00:59:26.319Z,101620.19
2022-10-08T01:01:54.268Z,101618.56
2022-10-08T01:04:20.820Z,101623.75
2022-10-08T01:07:24.896Z,101628.38
2022-10-08T01:10:15.515Z,101621.28
2022-10-08T01:12:45.584Z,101624.03
2022-10-08T01:15:23.922Z,101621.28
2022-10-08T01:18:07.088Z,101609.81
2022-10-08T01:20:37.208Z,101617.75
2022-10-08T01:23:12.467Z,101624.56
2022-10-08T01:25:54.231Z,101625.38
2022-10-08T01:28:33.064Z,101628.66
2022-10-08T01:31:19.135Z,101629.19
2022-10-08T01:33:51.351Z,101621.81
2022-10-08T01:36:19.265Z,101622.09
2022-10-08T01:38:51.317Z,101630.00
2022-10-08T01:44:05.476Z,101622.91
2022-10-08T01:46:34.211Z,101622.91
2022-10-08T01:49:09.286Z,101626.47
2022-10-08T01:54:33.791Z,101637.38
2022-10-08T01:57:03.523Z,101637.63
2022-10-08T01:59:59.118Z,101642.25
2022-10-08T02:08:02.984Z,101636.81
2022-10-08T02:10:29.476Z,101637.63
2022-10-08T02:12:56.034Z,101641.44
2022-10-08T02:15:46.321Z,101649.63
2022-10-08T02:18:18.153Z,101638.72
2022-10-08T02:20:55.801Z,101649.63
2022-10-08T02:23:25.600Z,101644.16
2022-10-08T02:25:58.034Z,101641.72
2022-10-08T02:28:35.954Z,101641.72
2022-10-08T02:31:09.897Z,101642.53
2022-10-08T02:36:31.190Z,101646.34
2022-10-08T02:39:01.560Z,101645.53
2022-10-08T02:41:34.247Z,101642.81
2022-10-08T02:44:06.192Z,101652.06
2022-10-08T02:46:37.617Z,101647.41
2022-10-08T02:49:27.777Z,101644.97
2022-10-08T02:51:57.914Z,101646.34
2022-10-08T02:54:24.652Z,101654.78
2022-10-08T02:56:56.802Z,101648.50
2022-10-08T03:04:53.657Z,101661.34
2022-10-08T03:07:23.070Z,101663.25
2022-10-08T03:09:52.091Z,101673.31
2022-10-08T03:12:19.197Z,101677.97
2022-10-08T03:14:48.621Z,101679.59
2022-10-08T03:17:22.252Z,101680.41
2022-10-08T03:19:48.723Z,101681.22
2022-10-08T03:25:09.812Z,101691.31
2022-10-08T03:27:36.308Z,101687.78
2022-10-08T03:30:04.703Z,101686.13
2022-10-08T03:32:31.298Z,101688.03
2022-10-08T03:34:57.854Z,101685.28
2022-10-08T03:37:24.630Z,101685.56
2022-10-08T03:39:53.281Z,101696.47
2022-10-08T03:42:19.880Z,101697.28
2022-10-08T03:50:08.323Z,101706.56
2022-10-08T03:57:56.513Z,101712.00
2022-10-08T04:00:23.070Z,101720.19
2022-10-08T04:05:48.985Z,101719.63
2022-10-08T04:08:15.436Z,101723.44
2022-10-08T04:10:41.900Z,101735.97
2022-10-08T04:15:54.523Z,101726.97
2022-10-08T04:18:21.114Z,101732.44
2022-10-08T04:23:34.786Z,101758.06
2022-10-08T04:26:01.600Z,101746.34
2022-10-08T04:28:28.939Z,101746.34
2022-10-08T04:31:04.254Z,101747.44
2022-10-08T04:36:18.836Z,101755.84
2022-10-08T04:38:46.102Z,101750.16
2022-10-08T04:41:15.837Z,101757.50
2022-10-08T04:43:43.844Z,101763.78
2022-10-08T04:46:12.513Z,101757.50
2022-10-08T04:51:26.618Z,101760.78
2022-10-08T04:53:55.066Z,101757.25
2022-10-08T04:56:24.770Z,101761.59
2022-10-08T04:58:51.270Z,101772.50
2022-10-08T05:03:59.538Z,101777.94
2022-10-08T05:06:28.433Z,101784.50
2022-10-08T05:11:36.849Z,101781.78
2022-10-08T05:14:03.390Z,101789.13
2022-10-08T05:16:29.959Z,101794.59
2022-10-08T05:18:57.396Z,101801.94
2022-10-08T05:21:26.583Z,101791.03
2022-10-08T05:24:07.497Z,101794.59
2022-10-08T05:26:58.071Z,101802.19
2022-10-08T05:29:25.638Z,101806.81
2022-10-08T05:31:52.263Z,101813.91
2022-10-08T05:34:18.747Z,101813.09
2022-10-08T05:36:45.306Z,101809.81
2022-10-08T05:39:11.862Z,101820.97
2022-10-08T05:41:40.043Z,101814.69
2022-10-08T05:44:07.446Z,101823.16
2022-10-08T05:46:36.265Z,101828.59
2022-10-08T05:49:06.019Z,101826.94
2022-10-08T05:51:40.796Z,101833.47
2022-10-08T05:54:07.453Z,101846.28
2022-10-08T05:56:34.309Z,101842.47
2022-10-08T05:59:00.911Z,101847.09
2022-10-08T06:01:31.251Z,101849.00
2022-10-08T06:04:07.016Z,101847.38
2022-10-08T06:09:20.852Z,101865.34
2022-10-08T06:11:48.127Z,101867.28
2022-10-08T06:16:57.648Z,101877.91
2022-10-08T06:19:24.149Z,101890.13
2022-10-08T06:21:50.667Z,101888.25
2022-10-08T06:29:51.465Z,101906.47
2022-10-08T06:32:17.956Z,101903.50
2022-10-08T06:34:44.441Z,101914.41
2022-10-08T06:39:55.140Z,101928.03
2022-10-08T06:42:21.694Z,101934.31
2022-10-08T06:44:48.296Z,101937.31
2022-10-08T06:47:14.759Z,101949.03
2022-10-08T06:49:41.210Z,101949.22
2022-10-08T06:54:47.190Z,101937.31
2022-10-08T06:57:13.746Z,101948.41
2022-10-08T06:59:40.325Z,101955.53
2022-10-08T07:02:06.860Z,101958.50
2022-10-08T07:07:16.994Z,101964.75
2022-10-08T07:09:43.444Z,101970.22
2022-10-08T07:14:52.527Z,101970.22
2022-10-08T07:17:19.003Z,101972.13
2022-10-08T07:19:45.444Z,101977.56
2022-10-08T07:24:56.571Z,101987.06
2022-10-08T07:27:23.849Z,101987.06
2022-10-08T07:29:50.323Z,101992.78
2022-10-08T07:32:16.779Z,101998.81
2022-10-08T07:34:43.257Z,102006.16
2022-10-08T07:37:09.718Z,102017.03
2022-10-08T07:42:25.509Z,102020.63
2022-10-08T07:47:32.353Z,102029.84
2022-10-08T07:49:58.823Z,102024.41
2022-10-08T07:52:26.387Z,102038.84
2022-10-08T07:55:06.073Z,102038.84
2022-10-08T07:57:32.530Z,102040.75
2022-10-08T07:59:59.062Z,102056.56
2022-10-08T08:05:07.218Z,102055.47
2022-10-08T08:07:33.675Z,102055.72
2022-10-08T08:10:00.153Z,102061.19
2022-10-08T08:12:26.667Z,102059.28
2022-10-08T08:14:53.212Z,102061.19
2022-10-08T08:17:21.550Z,102071.25
2022-10-08T08:19:48.028Z,102078.34
2022-10-08T08:22:14.719Z,102077.53
2022-10-08T08:27:22.691Z,102095.78
2022-10-08T08:29:49.191Z,102091.97
2022-10-08T08:32:28.368Z,102091.41
2022-10-08T08:34:55.253Z,102104.78
2022-10-08T08:37:21.796Z,102112.13
2022-10-08T08:39:52.046Z,102109.41
2022-10-08T08:42:37.196Z,102109.66
2022-10-08T08:45:46.289Z,102121.94
2022-10-08T08:48:19.221Z,102116.75
2022-10-08T08:53:14.641Z,102127.63
2022-10-08T09:01:48.498Z,102138.53
2022-10-08T09:04:45.064Z,102136.66
2022-10-08T09:07:19.678Z,102143.16
2022-10-08T09:09:52.888Z,102142.09
2022-10-08T09:12:43.759Z,102151.34
2022-10-08T09:18:25.924Z,102167.44
2022-10-08T09:20:52.520Z,102168.78
2022-10-08T09:23:22.173Z,102180.50
2022-10-08T09:26:09.031Z,102173.13
2022-10-08T09:28:47.450Z,102179.41
2022-10-08T09:31:38.526Z,102175.88
2022-10-08T09:34:23.472Z,102188.66
2022-10-08T09:37:00.397Z,102180.50
2022-10-08T09:42:29.401Z,102187.34
2022-10-08T09:44:57.994Z,102193.88
2022-10-08T09:47:26.346Z,102199.88
2022-10-08T09:50:21.081Z,102198.81
2022-10-08T09:52:50.636Z,102205.66
2022-10-08T09:58:04.117Z,102210.84
2022-10-08T10:00:36.257Z,102207.28
2022-10-08T10:03:06.693Z,102206.25
2022-10-08T10:05:36.057Z,102206.25
2022-10-08T10:08:05.175Z,102213.91
2022-10-08T10:13:40.466Z,102212.28
2022-10-08T10:16:20.580Z,102219.13
2022-10-08T10:18:59.024Z,102222.69
2022-10-08T10:21:51.838Z,102227.88
2022-10-08T10:24:56.396Z,102216.13
2022-10-08T10:27:22.811Z,102228.69
2022-10-08T10:30:18.243Z,102233.31
2022-10-08T10:32:49.349Z,102242.31
2022-10-08T10:35:27.641Z,102238.25
2022-10-08T10:38:09.501Z,102244.53
2022-10-08T10:40:41.959Z,102244.53
2022-10-08T10:43:28.500Z,102253.53
2022-10-08T10:46:17.394Z,102247.84
2022-10-08T10:51:40.132Z,102252.53
2022-10-08T10:54:30.248Z,102261.31
2022-10-08T10:57:04.833Z,102259.41
2022-10-08T10:59:59.036Z,102261.84
2022-10-08T11:03:16.319Z,102261.63
2022-10-08T11:05:45.285Z,102272.25
2022-10-08T11:08:23.007Z,102264.63
2022-10-08T11:14:12.218Z,102273.66
2022-10-08T11:16:55.690Z,102269.03
2022-10-08T11:22:49.058Z,102287.34
2022-10-08T11:26:10.763Z,102278.91
2022-10-08T11:28:49.822Z,102279.22
2022-10-08T11:31:35.579Z,102279.00
2022-10-08T11:34:03.890Z,102281.44
2022-10-08T11:36:33.415Z,102283.09
2022-10-08T11:39:00.110Z,102278.72
2022-10-08T11:41:39.094Z,102276.56
2022-10-08T11:44:10.962Z,102283.94
2022-10-08T11:46:37.725Z,102287.22
2022-10-08T11:49:16.124Z,102281.53
2022-10-08T11:51:52.735Z,102283.16
2022-10-08T11:54:38.486Z,102275.81
2022-10-08T11:58:06.280Z,102275.81
2022-10-08T12:00:33.009Z,102271.75
2022-10-08T12:03:08.499Z,102286.22
2022-10-08T12:05:50.157Z,102274.22
2022-10-08T12:11:35.486Z,102271.81
2022-10-08T12:14:20.235Z,102274.25
2022-10-08T12:16:55.532Z,102274.03
2022-10-08T12:19:37.119Z,102275.66
2022-10-08T12:22:16.483Z,102281.72
2022-10-08T12:24:55.609Z,102285.25
2022-10-08T12:27:31.700Z,102283.06
2022-10-08T12:30:12.306Z,102287.47
2022-10-08T12:32:41.640Z,102285.31
2022-10-08T12:35:28.894Z,102289.66
2022-10-08T12:38:13.553Z,102292.97
2022-10-08T12:40:52.968Z,102286.44
2022-10-08T12:43:36.828Z,102291.88
2022-10-08T12:46:25.054Z,102299.84
2022-10-08T12:49:11.812Z,102290.56
2022-10-08T12:51:47.315Z,102300.38
2022-10-08T12:57:12.572Z,102304.56
2022-10-08T12:59:41.554Z,102296.09
2022-10-08T13:02:43.643Z,102300.47
2022-10-08T13:05:22.228Z,102289.56
2022-10-08T13:07:49.611Z,102295.59
2022-10-08T13:10:20.606Z,102304.38
2022-10-08T13:13:04.648Z,102293.19
2022-10-08T13:15:33.526Z,102294.56
2022-10-08T13:18:21.798Z,102300.84
2022-10-08T13:21:02.829Z,102298.94
2022-10-08T13:23:36.521Z,102296.78
2022-10-08T13:26:03.784Z,102292.97
2022-10-08T13:28:55.699Z,102300.09
2022-10-08T13:31:23.579Z,102306.94
2022-10-08T13:33:50.803Z,102304.75
2022-10-08T13:39:03.339Z,102319.81
2022-10-08T13:41:29.805Z,102326.66
2022-10-08T13:43:56.254Z,102324.75
2022-10-08T13:46:22.741Z,102320.94
2022-10-08T13:48:49.359Z,102336.00
2022-10-08T13:51:16.430Z,102333.25
2022-10-08T13:53:45.980Z,102333.81
2022-10-08T13:56:12.587Z,102339.03
2022-10-08T13:58:39.078Z,102330.56
2022-10-08T14:01:05.670Z,102337.66
2022-10-08T14:03:32.349Z,102340.16
2022-10-08T14:05:58.972Z,102342.63
2022-10-08T14:08:33.936Z,102337.97
2022-10-08T14:11:02.257Z,102336.91
2022-10-08T14:21:23.013Z,102338.88
2022-10-08T14:23:49.490Z,102338.88
2022-10-08T14:26:16.021Z,102344.88
2022-10-08T14:28:42.548Z,102338.34
2022-10-08T14:31:11.918Z,102338.09
2022-10-08T14:33:42.917Z,102342.47
2022-10-08T14:36:15.848Z,102341.13
2022-10-08T14:38:42.544Z,102347.41
2022-10-08T14:41:09.928Z,102350.72
2022-10-08T14:43:36.835Z,102357.00
2022-10-08T14:48:44.065Z,102354.81
2022-10-08T14:51:12.534Z,102359.22
2022-10-08T14:53:39.645Z,102355.41
2022-10-08T14:56:12.474Z,102359.78
2022-10-08T14:58:40.187Z,102364.97
2022-10-08T15:01:06.743Z,102360.34
2022-10-08T15:03:33.288Z,102361.16
2022-10-08T15:06:00.899Z,102357.34
2022-10-08T15:08:28.743Z,102364.44
2022-10-08T15:13:47.596Z,102363.13
2022-10-08T15:16:14.961Z,102367.50
2022-10-08T15:21:29.767Z,102363.69
2022-10-08T15:23:57.060Z,102363.47
2022-10-08T15:26:23.553Z,102367.00
2022-10-08T15:28:53.755Z,102368.66
2022-10-08T15:31:28.838Z,102361.28
2022-10-08T15:33:59.321Z,102364.84
2022-10-08T15:36:25.971Z,102364.59
2022-10-08T15:38:55.570Z,102363.50
2022-10-08T15:41:22.435Z,102371.69
2022-10-08T15:43:48.955Z,102364.06
2022-10-08T15:46:19.575Z,102375.00
2022-10-08T15:48:54.408Z,102376.63
2022-10-08T15:51:22.666Z,102379.38
2022-10-08T15:53:50.367Z,102378.28
2022-10-08T15:56:17.147Z,102384.59
2022-10-08T15:58:50.827Z,102383.50
2022-10-08T16:01:20.887Z,102392.53
2022-10-08T16:03:49.518Z,102395.25
2022-10-08T16:06:19.221Z,102397.97
2022-10-08T16:08:46.147Z,102387.88
2022-10-08T16:11:17.369Z,102387.88
2022-10-08T16:13:45.993Z,102383.22
2022-10-08T16:16:15.341Z,102389.50
2022-10-08T16:18:42.920Z,102394.16
2022-10-08T16:21:11.460Z,102383.22
2022-10-08T16:23:38.751Z,102392.00
2022-10-08T16:26:11.157Z,102392.81
2022-10-08T16:28:39.752Z,102402.13
2022-10-08T16:31:08.455Z,102403.75
2022-10-08T16:33:35.098Z,102401.84
2022-10-08T16:36:04.237Z,102405.66
2022-10-08T16:38:31.079Z,102407.31
2022-10-08T16:41:20.154Z,102408.41
2022-10-08T16:43:49.385Z,102411.13
2022-10-08T16:46:17.486Z,102412.19
2022-10-08T16:48:44.829Z,102417.41
2022-10-08T16:51:12.298Z,102417.66
2022-10-08T16:53:38.796Z,102417.66
2022-10-08T16:56:05.785Z,102413.03
2022-10-08T16:58:33.205Z,102422.06
2022-10-08T17:01:04.765Z,102422.88
2022-10-08T17:03:31.290Z,102423.38
2022-10-08T17:05:57.983Z,102433.22
2022-10-08T17:08:24.526Z,102427.53
2022-10-08T17:10:51.111Z,102444.97
2022-10-08T17:13:17.602Z,102431.59
2022-10-08T17:15:44.061Z,102443.34
2022-10-08T17:18:10.962Z,102438.13
2022-10-08T17:20:37.541Z,102441.69
2022-10-08T17:23:04.013Z,102432.69
2022-10-08T17:25:30.616Z,102438.97
2022-10-08T17:27:57.106Z,102451.81
2022-10-08T17:30:23.592Z,102461.91
2022-10-08T17:32:50.359Z,102461.09
2022-10-08T17:35:16.965Z,102460.00
2022-10-08T17:37:43.498Z,102459.41
2022-10-08T17:40:10.128Z,102463.25
2022-10-08T17:42:36.717Z,102468.72
2022-10-08T17:45:03.486Z,102468.72
2022-10-08T17:47:29.937Z,102472.53
2022-10-08T17:49:56.546Z,102470.84
2022-10-08T17:52:23.076Z,102471.13
2022-10-08T17:54:49.540Z,102480.13
2022-10-08T17:57:16.036Z,102481.22
2022-10-08T17:59:43.616Z,102480.13
2022-10-08T18:02:10.292Z,102478.75
2022-10-08T18:04:36.907Z,102490.25
2022-10-08T18:07:03.796Z,102479.59
2022-10-08T18:09:30.386Z,102486.94
2022-10-08T18:11:56.930Z,102478.75
2022-10-08T18:14:23.612Z,102482.31
2022-10-08T18:16:50.431Z,102486.13
2022-10-08T18:19:17.843Z,102488.03
2022-10-08T18:21:44.384Z,102494.56
2022-10-08T18:24:11.131Z,102482.56
2022-10-08T18:26:37.839Z,102492.91
2022-10-08T18:29:09.036Z,102503.84
2022-10-08T18:31:36.751Z,102498.13
2022-10-08T18:34:06.848Z,102503.00
2022-10-08T18:36:35.325Z,102496.69
2022-10-08T18:39:05.421Z,102502.16
2022-10-08T18:41:38.960Z,102509.53
2022-10-08T18:44:06.986Z,102515.00
2022-10-08T18:46:35.899Z,102512.25
2022-10-08T18:49:03.271Z,102516.09
2022-10-08T18:51:30.457Z,102518.22
2022-10-08T18:53:58.145Z,102525.59
2022-10-08T18:56:29.058Z,102520.13
2022-10-08T18:58:57.161Z,102519.31
2022-10-08T19:01:26.481Z,102524.56
2022-10-08T19:03:58.573Z,102527.50
2022-10-08T19:06:28.236Z,102528.59
2022-10-08T19:08:56.057Z,102525.88
2022-10-08T19:11:33.048Z,102524.22
2022-10-08T19:14:01.056Z,102535.41
2022-10-08T19:16:27.845Z,102537.88
2022-10-08T19:19:02.370Z,102539.78
2022-10-08T19:21:30.062Z,102535.41
2022-10-08T19:23:57.860Z,102536.22
2022-10-08T19:26:26.048Z,102537.31
2022-10-08T19:28:54.385Z,102541.13
2022-10-08T19:31:35.191Z,102544.09
2022-10-08T19:34:06.842Z,102546.81
2022-10-08T19:36:37.948Z,102548.72
2022-10-08T19:39:07.741Z,102544.09
2022-10-08T19:41:34.221Z,102547.91
2022-10-08T19:44:00.700Z,102543.53
2022-10-08T19:46:28.144Z,102545.44
2022-10-08T19:48:59.982Z,102543.78
2022-10-08T19:51:28.367Z,102539.41
2022-10-08T19:53:55.369Z,102542.72
2022-10-08T19:56:22.662Z,102538.06
2022-10-08T19:58:53.091Z,102545.44
2022-10-08T20:01:21.067Z,102547.03
2022-10-08T20:03:47.922Z,102546.44
2022-10-08T20:06:23.275Z,102547.78
2022-10-08T20:08:56.473Z,102555.41
2022-10-08T20:11:23.507Z,102554.59
2022-10-08T20:13:51.415Z,102561.09
2022-10-08T20:16:24.021Z,102556.50
2022-10-08T20:18:53.258Z,102551.53
2022-10-08T20:21:20.961Z,102556.16
2022-10-08T20:23:48.258Z,102560.53
2022-10-08T20:26:21.326Z,102564.38
2022-10-08T20:28:53.409Z,102561.88
2022-10-08T20:31:22.186Z,102562.13
2022-10-08T20:33:54.867Z,102574.97
2022-10-08T20:36:21.434Z,102571.66
2022-10-08T20:38:47.882Z,102567.28
2022-10-08T20:41:14.490Z,102559.31
2022-10-08T20:43:41.114Z,102562.03
2022-10-08T20:46:11.216Z,102556.84
2022-10-08T20:48:39.420Z,102571.31
2022-10-08T20:51:11.937Z,102563.41
2022-10-08T20:53:38.807Z,102564.47
2022-10-08T20:56:09.130Z,102563.63
2022-10-08T20:58:37.240Z,102564.72
2022-10-08T21:01:06.923Z,102557.59
2022-10-08T21:03:36.069Z,102562.25
2022-10-08T21:06:06.761Z,102563.31
2022-10-08T21:08:41.190Z,102561.66
2022-10-08T21:11:10.189Z,102560.56
2022-10-08T21:13:37.002Z,102568.22
2022-10-08T21:16:07.129Z,102564.88
2022-10-08T21:18:35.016Z,102557.56
2022-10-08T21:21:03.581Z,102560.28
2022-10-08T21:23:30.644Z,102570.59
2022-10-08T21:26:21.155Z,102574.16
2022-10-08T21:28:48.597Z,102567.28
2022-10-08T21:31:16.881Z,102566.22
2022-10-08T21:33:46.125Z,102574.41
2022-10-08T21:36:15.226Z,102564.81
2022-10-08T21:38:42.230Z,102565.91
2022-10-08T21:41:12.517Z,102568.63
2022-10-08T21:43:40.805Z,102569.47
2022-10-08T21:46:09.010Z,102560.44
2022-10-08T21:48:36.056Z,102559.63
2022-10-08T21:51:09.917Z,102567.81
2022-10-08T21:53:38.446Z,102560.69
2022-10-08T21:56:09.061Z,102560.94
2022-10-08T21:58:47.516Z,102565.59
2022-10-08T22:01:24.769Z,102559.31
2022-10-08T22:03:56.165Z,102563.69
2022-10-08T22:06:23.286Z,102559.53
2022-10-08T22:08:50.468Z,102554.06
2022-10-08T22:11:17.383Z,102567.97
2022-10-08T22:13:44.102Z,102561.44
2022-10-08T22:16:13.362Z,102555.16
2022-10-08T22:18:40.351Z,102556.25
2022-10-08T22:21:09.259Z,102560.03
2022-10-08T22:23:36.205Z,102558.16
2022-10-08T22:26:09.158Z,102560.28
2022-10-08T22:28:36.385Z,102564.09
2022-10-08T22:31:04.944Z,102551.28
2022-10-08T22:33:32.827Z,102560.56
2022-10-08T22:36:04.043Z,102559.69
2022-10-08T22:38:35.134Z,102561.38
2022-10-08T22:41:04.385Z,102558.06
2022-10-08T22:43:31.309Z,102549.03
2022-10-08T22:46:05.296Z,102559.97
2022-10-08T22:48:32.556Z,102553.69
2022-10-08T22:51:08.419Z,102555.59
2022-10-08T22:53:35.243Z,102551.41
2022-10-08T22:56:06.558Z,102550.59
2022-10-08T22:58:35.322Z,102554.16
2022-10-08T23:01:07.648Z,102556.06
2022-10-08T23:03:35.494Z,102550.59
2022-10-08T23:06:08.057Z,102550.59
2022-10-08T23:08:35.608Z,102544.53
2022-10-08T23:11:03.144Z,102544.53
2022-10-08T23:13:30.133Z,102542.91
2022-10-08T23:16:00.698Z,102535.81
2022-10-08T23:18:27.136Z,102539.63
2022-10-08T23:20:53.601Z,102544.22
2022-10-08T23:23:20.344Z,102550.53
2022-10-08T23:25:58.710Z,102543.41
2022-10-08T23:28:26.580Z,102539.84
2022-10-08T23:30:53.632Z,102542.56
2022-10-08T23:33:20.850Z,102544.22
2022-10-08T23:35:55.684Z,102542.84
2022-10-08T23:38:22.783Z,102543.66
2022-10-08T23:40:52.129Z,102540.94
2022-10-08T23:43:18.728Z,102537.38
2022-10-08T23:45:45.243Z,102539.28
2022-10-08T23:48:11.758Z,102549.59
2022-10-08T23:50:38.757Z,102547.97
2022-10-08T23:53:05.394Z,102546.06
2022-10-08T23:55:31.924Z,102548.19
2022-10-08T23:57:58.376Z,102537.28
